sensor_id;sensor_type;location;lat;lon;timestamp;P1;durP1;ratioP1;P2;durP2;ratioP2
5519;SDS011;2782;52.362;10.012;2022-07-21T00:04:47;11.77;;;8.77;;
5519;SDS011;2782;52.362;10.012;2022-07-21T00:11:30;14.60;;;9.97;;
5519;SDS011;2782;52.362;10.012;2022-07-21T00:18:12;14.47;;;9.93;;
5519;SDS011;2782;52.362;10.012;2022-07-21T00:24:54;11.10;;;8.80;;
5519;SDS011;2782;52.362;10.012;2022-07-21T00:31:37;12.03;;;8.70;;
5519;SDS011;2782;52.362;10.012;2022-07-21T00:38:19;14.13;;;9.13;;
5519;SDS011;2782;52.362;10.012;2022-07-21T00:45:01;18.20;;;9.70;;
5519;SDS011;2782;52.362;10.012;2022-07-21T00:51:46;8.10;;;7.27;;
5519;SDS011;2782;52.362;10.012;2022-07-21T00:58:29;10.73;;;7.93;;
5519;SDS011;2782;52.362;10.012;2022-07-21T01:05:12;9.43;;;7.73;;
5519;SDS011;2782;52.362;10.012;2022-07-21T01:11:57;10.47;;;7.20;;
5519;SDS011;2782;52.362;10.012;2022-07-21T01:18:39;9.60;;;7.43;;
5519;SDS011;2782;52.362;10.012;2022-07-21T01:25:22;12.00;;;7.93;;
5519;SDS011;2782;52.362;10.012;2022-07-21T01:32:04;9.37;;;6.20;;
5519;SDS011;2782;52.362;10.012;2022-07-21T01:38:46;20.57;;;7.20;;
5519;SDS011;2782;52.362;10.012;2022-07-21T01:45:46;10.77;;;6.73;;
5519;SDS011;2782;52.362;10.012;2022-07-21T01:52:28;13.33;;;8.00;;
5519;SDS011;2782;52.362;10.012;2022-07-21T01:59:09;13.80;;;7.60;;
5519;SDS011;2782;52.362;10.012;2022-07-21T02:05:52;10.50;;;6.90;;
5519;SDS011;2782;52.362;10.012;2022-07-21T02:12:34;12.73;;;6.90;;
5519;SDS011;2782;52.362;10.012;2022-07-21T02:19:16;9.73;;;6.87;;
5519;SDS011;2782;52.362;10.012;2022-07-21T02:25:59;8.20;;;6.87;;
5519;SDS011;2782;52.362;10.012;2022-07-21T02:32:43;8.77;;;6.83;;
5519;SDS011;2782;52.362;10.012;2022-07-21T02:39:24;8.40;;;6.63;;
5519;SDS011;2782;52.362;10.012;2022-07-21T02:46:07;10.73;;;6.10;;
5519;SDS011;2782;52.362;10.012;2022-07-21T02:52:49;8.63;;;6.70;;
5519;SDS011;2782;52.362;10.012;2022-07-21T02:59:31;10.53;;;7.40;;
5519;SDS011;2782;52.362;10.012;2022-07-21T03:06:14;8.40;;;7.10;;
5519;SDS011;2782;52.362;10.012;2022-07-21T03:12:56;8.53;;;6.30;;
5519;SDS011;2782;52.362;10.012;2022-07-21T03:19:37;7.57;;;6.13;;
5519;SDS011;2782;52.362;10.012;2022-07-21T03:26:20;14.20;;;6.30;;
5519;SDS011;2782;52.362;10.012;2022-07-21T03:33:02;8.70;;;7.37;;
5519;SDS011;2782;52.362;10.012;2022-07-21T03:39:44;9.67;;;6.53;;
5519;SDS011;2782;52.362;10.012;2022-07-21T03:46:27;8.67;;;6.93;;
5519;SDS011;2782;52.362;10.012;2022-07-21T03:53:09;7.80;;;6.60;;
5519;SDS011;2782;52.362;10.012;2022-07-21T03:59:51;8.27;;;6.90;;
5519;SDS011;2782;52.362;10.012;2022-07-21T04:06:34;10.43;;;8.20;;
5519;SDS011;2782;52.362;10.012;2022-07-21T04:13:15;10.43;;;7.70;;
5519;SDS011;2782;52.362;10.012;2022-07-21T04:19:57;9.07;;;7.17;;
5519;SDS011;2782;52.362;10.012;2022-07-21T04:26:40;10.77;;;7.50;;
5519;SDS011;2782;52.362;10.012;2022-07-21T04:33:21;12.43;;;7.50;;
5519;SDS011;2782;52.362;10.012;2022-07-21T04:40:04;8.30;;;6.43;;
5519;SDS011;2782;52.362;10.012;2022-07-21T04:46:48;10.70;;;7.87;;
5519;SDS011;2782;52.362;10.012;2022-07-21T04:53:30;12.43;;;6.67;;
5519;SDS011;2782;52.362;10.012;2022-07-21T05:00:12;8.80;;;6.60;;
5519;SDS011;2782;52.362;10.012;2022-07-21T05:06:58;7.53;;;6.60;;
5519;SDS011;2782;52.362;10.012;2022-07-21T05:13:39;7.30;;;6.40;;
5519;SDS011;2782;52.362;10.012;2022-07-21T05:20:21;9.00;;;6.97;;
5519;SDS011;2782;52.362;10.012;2022-07-21T05:27:04;9.00;;;7.40;;
5519;SDS011;2782;52.362;10.012;2022-07-21T05:33:45;8.43;;;6.83;;
5519;SDS011;2782;52.362;10.012;2022-07-21T05:40:27;9.30;;;6.97;;
5519;SDS011;2782;52.362;10.012;2022-07-21T05:47:10;8.20;;;7.03;;
5519;SDS011;2782;52.362;10.012;2022-07-21T05:53:51;11.20;;;7.70;;
5519;SDS011;2782;52.362;10.012;2022-07-21T06:00:33;9.53;;;7.07;;
5519;SDS011;2782;52.362;10.012;2022-07-21T06:07:16;10.03;;;6.87;;
5519;SDS011;2782;52.362;10.012;2022-07-21T06:13:58;10.77;;;6.60;;
5519;SDS011;2782;52.362;10.012;2022-07-21T06:20:39;10.30;;;7.37;;
5519;SDS011;2782;52.362;10.012;2022-07-21T06:27:22;10.93;;;6.80;;
5519;SDS011;2782;52.362;10.012;2022-07-21T06:34:04;8.90;;;6.30;;
5519;SDS011;2782;52.362;10.012;2022-07-21T06:40:45;6.80;;;6.00;;
5519;SDS011;2782;52.362;10.012;2022-07-21T06:47:28;11.00;;;6.40;;
5519;SDS011;2782;52.362;10.012;2022-07-21T06:54:10;7.43;;;5.90;;
5519;SDS011;2782;52.362;10.012;2022-07-21T07:00:52;6.73;;;6.10;;
5519;SDS011;2782;52.362;10.012;2022-07-21T07:07:35;7.10;;;5.50;;
5519;SDS011;2782;52.362;10.012;2022-07-21T07:14:17;6.20;;;5.27;;
5519;SDS011;2782;52.362;10.012;2022-07-21T07:20:58;5.73;;;4.90;;
5519;SDS011;2782;52.362;10.012;2022-07-21T07:27:41;7.97;;;5.00;;
5519;SDS011;2782;52.362;10.012;2022-07-21T07:34:23;5.27;;;4.57;;
5519;SDS011;2782;52.362;10.012;2022-07-21T07:41:04;4.87;;;4.37;;
5519;SDS011;2782;52.362;10.012;2022-07-21T07:47:47;4.70;;;4.20;;
5519;SDS011;2782;52.362;10.012;2022-07-21T07:54:29;4.83;;;4.43;;
5519;SDS011;2782;52.362;10.012;2022-07-21T08:01:11;6.03;;;4.43;;
5519;SDS011;2782;52.362;10.012;2022-07-21T08:07:55;5.10;;;4.43;;
5519;SDS011;2782;52.362;10.012;2022-07-21T08:14:36;4.93;;;4.43;;
5519;SDS011;2782;52.362;10.012;2022-07-21T08:21:18;4.53;;;4.13;;
5519;SDS011;2782;52.362;10.012;2022-07-21T08:28:01;4.90;;;4.40;;
5519;SDS011;2782;52.362;10.012;2022-07-21T08:34:43;5.33;;;3.67;;
5519;SDS011;2782;52.362;10.012;2022-07-21T08:41:25;4.47;;;3.67;;
5519;SDS011;2782;52.362;10.012;2022-07-21T08:48:08;5.03;;;3.07;;
5519;SDS011;2782;52.362;10.012;2022-07-21T08:54:50;1.97;;;1.87;;
5519;SDS011;2782;52.362;10.012;2022-07-21T09:01:32;2.87;;;2.23;;
5519;SDS011;2782;52.362;10.012;2022-07-21T09:08:15;2.10;;;2.00;;
5519;SDS011;2782;52.362;10.012;2022-07-21T09:15:11;3.87;;;2.17;;
5519;SDS011;2782;52.362;10.012;2022-07-21T09:21:55;1.60;;;1.60;;
5519;SDS011;2782;52.362;10.012;2022-07-21T09:28:39;1.90;;;1.80;;
5519;SDS011;2782;52.362;10.012;2022-07-21T09:35:22;2.33;;;2.00;;
5519;SDS011;2782;52.362;10.012;2022-07-21T09:42:11;1.90;;;1.80;;
5519;SDS011;2782;52.362;10.012;2022-07-21T09:48:55;1.90;;;1.80;;
5519;SDS011;2782;52.362;10.012;2022-07-21T09:55:37;2.83;;;2.60;;
5519;SDS011;2782;52.362;10.012;2022-07-21T10:02:23;3.90;;;3.27;;
5519;SDS011;2782;52.362;10.012;2022-07-21T10:09:08;5.63;;;5.00;;
5519;SDS011;2782;52.362;10.012;2022-07-21T10:15:50;8.40;;;4.93;;
5519;SDS011;2782;52.362;10.012;2022-07-21T10:22:48;7.60;;;5.30;;
5519;SDS011;2782;52.362;10.012;2022-07-21T10:29:49;8.57;;;6.60;;
5519;SDS011;2782;52.362;10.012;2022-07-21T10:36:39;8.90;;;7.90;;
5519;SDS011;2782;52.362;10.012;2022-07-21T10:43:37;6.40;;;5.90;;
5519;SDS011;2782;52.362;10.012;2022-07-21T10:50:30;9.63;;;7.13;;
5519;SDS011;2782;52.362;10.012;2022-07-21T10:57:28;7.67;;;6.60;;
5519;SDS011;2782;52.362;10.012;2022-07-21T11:04:10;8.60;;;7.13;;
5519;SDS011;2782;52.362;10.012;2022-07-21T11:11:06;7.20;;;6.37;;
5519;SDS011;2782;52.362;10.012;2022-07-21T11:17:50;6.93;;;6.30;;
5519;SDS011;2782;52.362;10.012;2022-07-21T11:24:32;7.60;;;6.90;;
5519;SDS011;2782;52.362;10.012;2022-07-21T11:31:18;6.00;;;5.50;;
5519;SDS011;2782;52.362;10.012;2022-07-21T11:38:03;9.50;;;6.03;;
5519;SDS011;2782;52.362;10.012;2022-07-21T11:44:44;7.57;;;6.50;;
5519;SDS011;2782;52.362;10.012;2022-07-21T11:51:27;6.90;;;6.30;;
5519;SDS011;2782;52.362;10.012;2022-07-21T11:58:13;7.20;;;6.50;;
5519;SDS011;2782;52.362;10.012;2022-07-21T12:04:55;6.13;;;5.63;;
5519;SDS011;2782;52.362;10.012;2022-07-21T12:11:39;7.17;;;5.80;;
5519;SDS011;2782;52.362;10.012;2022-07-21T12:18:22;6.60;;;6.00;;
5519;SDS011;2782;52.362;10.012;2022-07-21T12:25:05;8.27;;;6.60;;
5519;SDS011;2782;52.362;10.012;2022-07-21T12:31:49;6.50;;;5.90;;
5519;SDS011;2782;52.362;10.012;2022-07-21T12:38:35;6.60;;;5.40;;
5519;SDS011;2782;52.362;10.012;2022-07-21T12:45:19;7.10;;;5.03;;
5519;SDS011;2782;52.362;10.012;2022-07-21T12:52:03;10.73;;;5.50;;
5519;SDS011;2782;52.362;10.012;2022-07-21T12:58:46;8.50;;;5.70;;
5519;SDS011;2782;52.362;10.012;2022-07-21T13:05:29;6.40;;;5.80;;
5519;SDS011;2782;52.362;10.012;2022-07-21T13:12:12;20.00;;;6.80;;
5519;SDS011;2782;52.362;10.012;2022-07-21T13:18:54;12.57;;;6.27;;
5519;SDS011;2782;52.362;10.012;2022-07-21T13:25:38;5.40;;;4.90;;
5519;SDS011;2782;52.362;10.012;2022-07-21T13:32:21;6.23;;;5.00;;
5519;SDS011;2782;52.362;10.012;2022-07-21T13:39:03;8.90;;;4.83;;
5519;SDS011;2782;52.362;10.012;2022-07-21T13:45:45;6.30;;;5.13;;
5519;SDS011;2782;52.362;10.012;2022-07-21T13:52:28;5.17;;;4.67;;
5519;SDS011;2782;52.362;10.012;2022-07-21T13:59:09;4.70;;;4.30;;
5519;SDS011;2782;52.362;10.012;2022-07-21T14:05:51;5.60;;;5.10;;
5519;SDS011;2782;52.362;10.012;2022-07-21T14:12:34;6.10;;;4.50;;
5519;SDS011;2782;52.362;10.012;2022-07-21T14:19:15;6.00;;;5.40;;
5519;SDS011;2782;52.362;10.012;2022-07-21T14:25:57;5.50;;;5.10;;
5519;SDS011;2782;52.362;10.012;2022-07-21T14:32:41;4.83;;;4.33;;
5519;SDS011;2782;52.362;10.012;2022-07-21T14:39:22;5.50;;;4.67;;
5519;SDS011;2782;52.362;10.012;2022-07-21T14:46:04;7.40;;;5.80;;
5519;SDS011;2782;52.362;10.012;2022-07-21T14:52:48;5.90;;;5.30;;
5519;SDS011;2782;52.362;10.012;2022-07-21T14:59:29;5.77;;;5.00;;
5519;SDS011;2782;52.362;10.012;2022-07-21T15:06:11;5.33;;;4.83;;
5519;SDS011;2782;52.362;10.012;2022-07-21T15:12:54;5.80;;;4.17;;
5519;SDS011;2782;52.362;10.012;2022-07-21T15:19:35;5.00;;;3.63;;
5519;SDS011;2782;52.362;10.012;2022-07-21T15:26:17;4.03;;;3.60;;
5519;SDS011;2782;52.362;10.012;2022-07-21T15:33:00;7.47;;;4.07;;
5519;SDS011;2782;52.362;10.012;2022-07-21T15:39:43;5.03;;;3.43;;
5519;SDS011;2782;52.362;10.012;2022-07-21T15:46:25;2.50;;;2.30;;
5519;SDS011;2782;52.362;10.012;2022-07-21T15:53:08;5.60;;;2.30;;
5519;SDS011;2782;52.362;10.012;2022-07-21T15:59:50;6.17;;;2.57;;
5519;SDS011;2782;52.362;10.012;2022-07-21T16:06:31;3.60;;;2.73;;
5519;SDS011;2782;52.362;10.012;2022-07-21T16:13:14;2.53;;;2.33;;
5519;SDS011;2782;52.362;10.012;2022-07-21T16:19:56;2.40;;;2.20;;
5519;SDS011;2782;52.362;10.012;2022-07-21T16:26:37;3.20;;;2.90;;
5519;SDS011;2782;52.362;10.012;2022-07-21T16:33:20;3.27;;;2.60;;
5519;SDS011;2782;52.362;10.012;2022-07-21T16:40:02;3.90;;;2.80;;
5519;SDS011;2782;52.362;10.012;2022-07-21T16:46:45;3.60;;;3.30;;
5519;SDS011;2782;52.362;10.012;2022-07-21T16:53:28;4.20;;;3.73;;
5519;SDS011;2782;52.362;10.012;2022-07-21T17:00:11;4.63;;;4.23;;
5519;SDS011;2782;52.362;10.012;2022-07-21T17:06:54;4.80;;;4.40;;
5519;SDS011;2782;52.362;10.012;2022-07-21T17:13:37;6.40;;;4.30;;
5519;SDS011;2782;52.362;10.012;2022-07-21T17:20:19;4.70;;;4.30;;
5519;SDS011;2782;52.362;10.012;2022-07-21T17:27:02;3.70;;;3.40;;
5519;SDS011;2782;52.362;10.012;2022-07-21T17:33:45;5.53;;;3.97;;
5519;SDS011;2782;52.362;10.012;2022-07-21T17:40:26;4.40;;;4.00;;
5519;SDS011;2782;52.362;10.012;2022-07-21T17:47:08;6.33;;;4.03;;
5519;SDS011;2782;52.362;10.012;2022-07-21T17:53:51;8.13;;;3.67;;
5519;SDS011;2782;52.362;10.012;2022-07-21T18:00:33;4.63;;;4.23;;
5519;SDS011;2782;52.362;10.012;2022-07-21T18:07:14;6.17;;;4.70;;
5519;SDS011;2782;52.362;10.012;2022-07-21T18:13:57;3.43;;;3.23;;
5519;SDS011;2782;52.362;10.012;2022-07-21T18:20:39;11.93;;;4.23;;
5519;SDS011;2782;52.362;10.012;2022-07-21T18:27:20;4.67;;;4.20;;
5519;SDS011;2782;52.362;10.012;2022-07-21T18:34:03;4.30;;;3.90;;
5519;SDS011;2782;52.362;10.012;2022-07-21T18:40:45;4.70;;;4.20;;
5519;SDS011;2782;52.362;10.012;2022-07-21T18:47:27;5.13;;;4.63;;
5519;SDS011;2782;52.362;10.012;2022-07-21T18:54:09;5.40;;;4.40;;
5519;SDS011;2782;52.362;10.012;2022-07-21T19:00:51;6.03;;;4.37;;
5519;SDS011;2782;52.362;10.012;2022-07-21T19:07:33;4.30;;;3.90;;
5519;SDS011;2782;52.362;10.012;2022-07-21T19:14:16;4.07;;;3.50;;
5519;SDS011;2782;52.362;10.012;2022-07-21T19:20:57;3.47;;;3.17;;
5519;SDS011;2782;52.362;10.012;2022-07-21T19:27:39;7.20;;;2.90;;
5519;SDS011;2782;52.362;10.012;2022-07-21T19:34:23;3.40;;;2.70;;
5519;SDS011;2782;52.362;10.012;2022-07-21T19:41:07;3.10;;;2.83;;
5519;SDS011;2782;52.362;10.012;2022-07-21T19:47:48;2.33;;;2.13;;
5519;SDS011;2782;52.362;10.012;2022-07-21T19:54:31;2.87;;;2.43;;
5519;SDS011;2782;52.362;10.012;2022-07-21T20:01:13;4.53;;;2.80;;
5519;SDS011;2782;52.362;10.012;2022-07-21T20:07:55;2.83;;;2.10;;
5519;SDS011;2782;52.362;10.012;2022-07-21T20:14:38;4.03;;;2.63;;
5519;SDS011;2782;52.362;10.012;2022-07-21T20:21:19;2.30;;;2.20;;
5519;SDS011;2782;52.362;10.012;2022-07-21T20:28:01;2.50;;;2.40;;
5519;SDS011;2782;52.362;10.012;2022-07-21T20:34:44;3.50;;;3.10;;
5519;SDS011;2782;52.362;10.012;2022-07-21T20:41:26;2.27;;;2.17;;
5519;SDS011;2782;52.362;10.012;2022-07-21T20:48:07;3.23;;;3.03;;
5519;SDS011;2782;52.362;10.012;2022-07-21T20:54:50;5.23;;;3.90;;
5519;SDS011;2782;52.362;10.012;2022-07-21T21:01:32;6.00;;;4.40;;
5519;SDS011;2782;52.362;10.012;2022-07-21T21:08:14;5.03;;;4.60;;
5519;SDS011;2782;52.362;10.012;2022-07-21T21:14:57;5.07;;;4.67;;
5519;SDS011;2782;52.362;10.012;2022-07-21T21:21:39;4.80;;;4.40;;
5519;SDS011;2782;52.362;10.012;2022-07-21T21:28:21;4.93;;;4.50;;
5519;SDS011;2782;52.362;10.012;2022-07-21T21:35:04;4.73;;;4.33;;
5519;SDS011;2782;52.362;10.012;2022-07-21T21:41:48;10.87;;;6.40;;
5519;SDS011;2782;52.362;10.012;2022-07-21T21:48:30;7.27;;;6.60;;
5519;SDS011;2782;52.362;10.012;2022-07-21T21:55:13;7.23;;;6.53;;
5519;SDS011;2782;52.362;10.012;2022-07-21T22:01:54;9.00;;;6.77;;
5519;SDS011;2782;52.362;10.012;2022-07-21T22:08:36;11.30;;;8.03;;
5519;SDS011;2782;52.362;10.012;2022-07-21T22:15:19;9.93;;;8.00;;
5519;SDS011;2782;52.362;10.012;2022-07-21T22:22:01;15.97;;;7.90;;
5519;SDS011;2782;52.362;10.012;2022-07-21T22:28:42;7.00;;;6.40;;
5519;SDS011;2782;52.362;10.012;2022-07-21T22:35:27;7.20;;;5.87;;
5519;SDS011;2782;52.362;10.012;2022-07-21T22:42:09;5.90;;;5.30;;
5519;SDS011;2782;52.362;10.012;2022-07-21T22:48:51;9.00;;;5.03;;
5519;SDS011;2782;52.362;10.012;2022-07-21T22:55:34;8.43;;;5.20;;
5519;SDS011;2782;52.362;10.012;2022-07-21T23:02:16;7.00;;;4.13;;
5519;SDS011;2782;52.362;10.012;2022-07-21T23:08:58;6.70;;;4.97;;
5519;SDS011;2782;52.362;10.012;2022-07-21T23:15:41;5.53;;;5.03;;
5519;SDS011;2782;52.362;10.012;2022-07-21T23:22:23;4.67;;;4.27;;
5519;SDS011;2782;52.362;10.012;2022-07-21T23:29:04;5.20;;;4.20;;
5519;SDS011;2782;52.362;10.012;2022-07-21T23:35:47;3.77;;;3.43;;
5519;SDS011;2782;52.362;10.012;2022-07-21T23:42:29;3.77;;;3.40;;
5519;SDS011;2782;52.362;10.012;2022-07-21T23:49:10;6.20;;;4.10;;
5519;SDS011;2782;52.362;10.012;2022-07-21T23:55:56;3.77;;;3.47;;
